sensor_id;sensor_type;location;lat;lon;timestamp;pressure;altitude;pressure_sealevel;temperature
30765;BMP180;494;48.744;10.106;2024-01-30T00:01:42;96808.00;;;3.00
30765;BMP180;494;48.744;10.106;2024-01-30T00:04:11;96213.00;;;3.00
30765;BMP180;494;48.744;10.106;2024-01-30T00:06:42;97035.00;;;2.30
30765;BMP180;494;48.744;10.106;2024-01-30T00:09:13;97077.00;;;2.50
30765;BMP180;494;48.744;10.106;2024-01-30T00:11:42;97030.00;;;2.90
30765;BMP180;494;48.744;10.106;2024-01-30T00:14:12;97037.00;;;3.00
30765;BMP180;494;48.744;10.106;2024-01-30T00:16:44;97029.00;;;2.90
30765;BMP180;494;48.744;10.106;2024-01-30T00:19:28;96944.00;;;3.00
30765;BMP180;494;48.744;10.106;2024-01-30T00:21:58;96810.00;;;2.80
30765;BMP180;494;48.744;10.106;2024-01-30T00:24:27;96944.00;;;2.80
30765;BMP180;494;48.744;10.106;2024-01-30T00:26:56;96937.00;;;1.40
30765;BMP180;494;48.744;10.106;2024-01-30T00:29:25;97130.00;;;2.80
30765;BMP180;494;48.744;10.106;2024-01-30T00:31:57;96374.00;;;0.70
30765;BMP180;494;48.744;10.106;2024-01-30T00:34:26;96746.00;;;2.80
30765;BMP180;494;48.744;10.106;2024-01-30T00:39:40;97045.00;;;2.80
30765;BMP180;494;48.744;10.106;2024-01-30T00:42:12;97031.00;;;0.70
30765;BMP180;494;48.744;10.106;2024-01-30T00:44:46;97051.00;;;2.80
30765;BMP180;494;48.744;10.106;2024-01-30T00:47:17;96404.00;;;2.80
30765;BMP180;494;48.744;10.106;2024-01-30T00:49:45;97038.00;;;2.70
30765;BMP180;494;48.744;10.106;2024-01-30T00:52:14;97047.00;;;2.40
30765;BMP180;494;48.744;10.106;2024-01-30T00:54:44;96276.00;;;2.90
30765;BMP180;494;48.744;10.106;2024-01-30T00:57:13;97044.00;;;2.80
30765;BMP180;494;48.744;10.106;2024-01-30T00:59:42;96376.00;;;2.70
30765;BMP180;494;48.744;10.106;2024-01-30T01:02:10;96584.00;;;2.70
30765;BMP180;494;48.744;10.106;2024-01-30T01:04:39;96979.00;;;2.70
30765;BMP180;494;48.744;10.106;2024-01-30T01:07:08;96388.00;;;2.30
30765;BMP180;494;48.744;10.106;2024-01-30T01:09:37;96842.00;;;2.40
30765;BMP180;494;48.744;10.106;2024-01-30T01:12:08;97115.00;;;2.60
30765;BMP180;494;48.744;10.106;2024-01-30T01:14:36;96913.00;;;2.20
30765;BMP180;494;48.744;10.106;2024-01-30T01:17:05;96736.00;;;2.30
30765;BMP180;494;48.744;10.106;2024-01-30T01:19:34;96608.00;;;1.30
30765;BMP180;494;48.744;10.106;2024-01-30T01:22:06;96769.00;;;2.60
30765;BMP180;494;48.744;10.106;2024-01-30T01:24:36;96946.00;;;1.30
30765;BMP180;494;48.744;10.106;2024-01-30T01:27:06;96372.00;;;2.70
30765;BMP180;494;48.744;10.106;2024-01-30T01:29:35;96448.00;;;2.80
30765;BMP180;494;48.744;10.106;2024-01-30T01:32:05;96924.00;;;2.40
30765;BMP180;494;48.744;10.106;2024-01-30T01:34:34;96893.00;;;2.80
30765;BMP180;494;48.744;10.106;2024-01-30T01:37:03;96566.00;;;2.80
30765;BMP180;494;48.744;10.106;2024-01-30T01:39:32;96840.00;;;2.90
30765;BMP180;494;48.744;10.106;2024-01-30T01:42:00;96967.00;;;2.80
30765;BMP180;494;48.744;10.106;2024-01-30T01:44:33;96784.00;;;2.90
30765;BMP180;494;48.744;10.106;2024-01-30T01:47:05;96410.00;;;1.80
30765;BMP180;494;48.744;10.106;2024-01-30T01:49:35;97014.00;;;2.90
30765;BMP180;494;48.744;10.106;2024-01-30T01:52:06;96770.00;;;2.80
30765;BMP180;494;48.744;10.106;2024-01-30T01:54:36;96837.00;;;2.90
30765;BMP180;494;48.744;10.106;2024-01-30T01:57:10;96117.00;;;2.90
30765;BMP180;494;48.744;10.106;2024-01-30T01:59:45;97030.00;;;2.90
30765;BMP180;494;48.744;10.106;2024-01-30T02:02:17;97076.00;;;3.00
30765;BMP180;494;48.744;10.106;2024-01-30T02:04:49;96986.00;;;3.00
30765;BMP180;494;48.744;10.106;2024-01-30T02:07:18;96160.00;;;3.00
30765;BMP180;494;48.744;10.106;2024-01-30T02:09:50;96284.00;;;3.00
30765;BMP180;494;48.744;10.106;2024-01-30T02:12:19;96569.00;;;1.40
30765;BMP180;494;48.744;10.106;2024-01-30T02:14:53;96747.00;;;2.50
30765;BMP180;494;48.744;10.106;2024-01-30T02:17:25;97026.00;;;2.90
30765;BMP180;494;48.744;10.106;2024-01-30T02:19:57;96741.00;;;1.80
30765;BMP180;494;48.744;10.106;2024-01-30T02:22:27;96832.00;;;2.60
30765;BMP180;494;48.744;10.106;2024-01-30T02:24:56;97050.00;;;3.00
30765;BMP180;494;48.744;10.106;2024-01-30T02:27:25;96934.00;;;3.00
30765;BMP180;494;48.744;10.106;2024-01-30T02:29:54;96801.00;;;3.00
30765;BMP180;494;48.744;10.106;2024-01-30T02:32:24;96922.00;;;2.50
30765;BMP180;494;48.744;10.106;2024-01-30T02:34:55;96932.00;;;3.10
30765;BMP180;494;48.744;10.106;2024-01-30T02:37:24;96610.00;;;3.10
30765;BMP180;494;48.744;10.106;2024-01-30T02:39:54;97032.00;;;3.10
30765;BMP180;494;48.744;10.106;2024-01-30T02:42:25;97015.00;;;3.00
30765;BMP180;494;48.744;10.106;2024-01-30T02:44:54;96235.00;;;0.90
30765;BMP180;494;48.744;10.106;2024-01-30T02:47:23;96909.00;;;3.10
30765;BMP180;494;48.744;10.106;2024-01-30T02:49:52;96921.00;;;3.00
30765;BMP180;494;48.744;10.106;2024-01-30T02:52:25;97089.00;;;2.90
30765;BMP180;494;48.744;10.106;2024-01-30T02:54:55;96896.00;;;2.90
30765;BMP180;494;48.744;10.106;2024-01-30T02:57:24;96931.00;;;2.20
30765;BMP180;494;48.744;10.106;2024-01-30T02:59:53;97049.00;;;2.10
30765;BMP180;494;48.744;10.106;2024-01-30T03:02:25;97034.00;;;1.80
30765;BMP180;494;48.744;10.106;2024-01-30T03:04:53;96798.00;;;2.90
30765;BMP180;494;48.744;10.106;2024-01-30T03:07:22;97014.00;;;2.90
30765;BMP180;494;48.744;10.106;2024-01-30T03:09:52;96820.00;;;2.90
30765;BMP180;494;48.744;10.106;2024-01-30T03:12:24;96381.00;;;2.60
30765;BMP180;494;48.744;10.106;2024-01-30T03:14:53;97019.00;;;3.00
30765;BMP180;494;48.744;10.106;2024-01-30T03:17:22;96928.00;;;2.90
30765;BMP180;494;48.744;10.106;2024-01-30T03:19:52;96997.00;;;2.90
30765;BMP180;494;48.744;10.106;2024-01-30T03:22:22;96908.00;;;1.20
30765;BMP180;494;48.744;10.106;2024-01-30T03:24:53;96616.00;;;2.90
30765;BMP180;494;48.744;10.106;2024-01-30T03:27:24;96869.00;;;2.90
30765;BMP180;494;48.744;10.106;2024-01-30T03:29:52;96423.00;;;2.30
30765;BMP180;494;48.744;10.106;2024-01-30T03:32:21;97024.00;;;2.40
30765;BMP180;494;48.744;10.106;2024-01-30T03:34:50;96560.00;;;2.40
30765;BMP180;494;48.744;10.106;2024-01-30T03:37:19;96894.00;;;2.80
30765;BMP180;494;48.744;10.106;2024-01-30T03:39:48;96208.00;;;2.70
30765;BMP180;494;48.744;10.106;2024-01-30T03:42:17;96885.00;;;1.40
30765;BMP180;494;48.744;10.106;2024-01-30T03:44:47;96766.00;;;2.60
30765;BMP180;494;48.744;10.106;2024-01-30T03:47:21;96854.00;;;2.60
30765;BMP180;494;48.744;10.106;2024-01-30T03:49:51;96890.00;;;2.10
30765;BMP180;494;48.744;10.106;2024-01-30T03:52:20;97070.00;;;2.70
30765;BMP180;494;48.744;10.106;2024-01-30T03:54:50;96364.00;;;1.50
30765;BMP180;494;48.744;10.106;2024-01-30T03:57:19;96957.00;;;0.90
30765;BMP180;494;48.744;10.106;2024-01-30T03:59:49;97023.00;;;2.60
30765;BMP180;494;48.744;10.106;2024-01-30T04:02:18;97016.00;;;2.60
30765;BMP180;494;48.744;10.106;2024-01-30T04:04:48;96448.00;;;1.50
30765;BMP180;494;48.744;10.106;2024-01-30T04:07:16;96953.00;;;2.60
30765;BMP180;494;48.744;10.106;2024-01-30T04:09:50;96860.00;;;2.30
30765;BMP180;494;48.744;10.106;2024-01-30T04:12:20;96801.00;;;2.40
30765;BMP180;494;48.744;10.106;2024-01-30T04:14:51;96340.00;;;2.50
30765;BMP180;494;48.744;10.106;2024-01-30T04:17:19;97021.00;;;2.50
30765;BMP180;494;48.744;10.106;2024-01-30T04:19:48;96959.00;;;2.50
30765;BMP180;494;48.744;10.106;2024-01-30T04:22:17;96823.00;;;2.50
30765;BMP180;494;48.744;10.106;2024-01-30T04:24:46;96929.00;;;2.40
30765;BMP180;494;48.744;10.106;2024-01-30T04:27:14;96141.00;;;2.50
30765;BMP180;494;48.744;10.106;2024-01-30T04:29:43;96761.00;;;1.30
30765;BMP180;494;48.744;10.106;2024-01-30T04:32:13;96712.00;;;2.50
30765;BMP180;494;48.744;10.106;2024-01-30T04:34:42;96835.00;;;2.40
30765;BMP180;494;48.744;10.106;2024-01-30T04:37:11;96937.00;;;2.30
30765;BMP180;494;48.744;10.106;2024-01-30T04:39:41;97026.00;;;2.40
30765;BMP180;494;48.744;10.106;2024-01-30T04:42:10;96679.00;;;2.40
30765;BMP180;494;48.744;10.106;2024-01-30T04:44:38;96915.00;;;2.30
30765;BMP180;494;48.744;10.106;2024-01-30T04:47:07;97025.00;;;2.30
30765;BMP180;494;48.744;10.106;2024-01-30T04:49:40;96657.00;;;2.40
30765;BMP180;494;48.744;10.106;2024-01-30T04:52:09;96479.00;;;2.40
30765;BMP180;494;48.744;10.106;2024-01-30T04:54:38;96283.00;;;2.20
30765;BMP180;494;48.744;10.106;2024-01-30T04:57:07;97017.00;;;2.30
30765;BMP180;494;48.744;10.106;2024-01-30T04:59:39;96874.00;;;2.30
30765;BMP180;494;48.744;10.106;2024-01-30T05:02:08;96770.00;;;2.30
30765;BMP180;494;48.744;10.106;2024-01-30T05:04:38;97095.00;;;2.20
30765;BMP180;494;48.744;10.106;2024-01-30T05:07:09;96867.00;;;2.30
30765;BMP180;494;48.744;10.106;2024-01-30T05:09:37;97023.00;;;2.30
30765;BMP180;494;48.744;10.106;2024-01-30T05:12:07;97008.00;;;2.20
30765;BMP180;494;48.744;10.106;2024-01-30T05:14:36;97031.00;;;2.20
30765;BMP180;494;48.744;10.106;2024-01-30T05:17:04;97030.00;;;2.20
30765;BMP180;494;48.744;10.106;2024-01-30T05:19:33;96397.00;;;0.80
30765;BMP180;494;48.744;10.106;2024-01-30T05:22:05;97122.00;;;2.20
30765;BMP180;494;48.744;10.106;2024-01-30T05:24:35;96774.00;;;0.20
30765;BMP180;494;48.744;10.106;2024-01-30T05:27:05;96492.00;;;2.10
30765;BMP180;494;48.744;10.106;2024-01-30T05:29:34;96993.00;;;2.10
30765;BMP180;494;48.744;10.106;2024-01-30T05:32:04;96584.00;;;2.20
30765;BMP180;494;48.744;10.106;2024-01-30T05:34:33;96921.00;;;1.00
30765;BMP180;494;48.744;10.106;2024-01-30T05:37:05;97041.00;;;2.20
30765;BMP180;494;48.744;10.106;2024-01-30T05:39:34;97057.00;;;1.80
30765;BMP180;494;48.744;10.106;2024-01-30T05:42:03;96927.00;;;2.20
30765;BMP180;494;48.744;10.106;2024-01-30T05:44:32;97031.00;;;2.10
30765;BMP180;494;48.744;10.106;2024-01-30T05:47:01;97041.00;;;2.10
30765;BMP180;494;48.744;10.106;2024-01-30T05:49:29;96845.00;;;2.10
30765;BMP180;494;48.744;10.106;2024-01-30T05:51:58;96629.00;;;2.20
30765;BMP180;494;48.744;10.106;2024-01-30T05:54:29;96923.00;;;2.10
30765;BMP180;494;48.744;10.106;2024-01-30T05:56:57;96907.00;;;2.20
30765;BMP180;494;48.744;10.106;2024-01-30T05:59:26;96759.00;;;2.10
30765;BMP180;494;48.744;10.106;2024-01-30T06:01:55;96574.00;;;2.00
30765;BMP180;494;48.744;10.106;2024-01-30T06:04:25;97045.00;;;2.00
30765;BMP180;494;48.744;10.106;2024-01-30T06:06:54;96331.00;;;2.10
30765;BMP180;494;48.744;10.106;2024-01-30T06:09:23;96721.00;;;-0.50
30765;BMP180;494;48.744;10.106;2024-01-30T06:11:57;97048.00;;;2.00
30765;BMP180;494;48.744;10.106;2024-01-30T06:14:26;96429.00;;;1.50
30765;BMP180;494;48.744;10.106;2024-01-30T06:16:56;96711.00;;;1.50
30765;BMP180;494;48.744;10.106;2024-01-30T06:19:25;96932.00;;;1.70
30765;BMP180;494;48.744;10.106;2024-01-30T06:21:56;97110.00;;;2.00
30765;BMP180;494;48.744;10.106;2024-01-30T06:24:25;96263.00;;;2.00
30765;BMP180;494;48.744;10.106;2024-01-30T06:26:57;97116.00;;;2.00
30765;BMP180;494;48.744;10.106;2024-01-30T06:29:26;97033.00;;;2.10
30765;BMP180;494;48.744;10.106;2024-01-30T06:31:56;97028.00;;;1.90
30765;BMP180;494;48.744;10.106;2024-01-30T06:34:24;97027.00;;;2.10
30765;BMP180;494;48.744;10.106;2024-01-30T06:36:55;96927.00;;;2.10
30765;BMP180;494;48.744;10.106;2024-01-30T06:39:24;96951.00;;;2.20
30765;BMP180;494;48.744;10.106;2024-01-30T06:41:52;97012.00;;;2.20
30765;BMP180;494;48.744;10.106;2024-01-30T06:44:23;96942.00;;;2.20
30765;BMP180;494;48.744;10.106;2024-01-30T06:46:51;96937.00;;;2.20
30765;BMP180;494;48.744;10.106;2024-01-30T06:49:21;96859.00;;;1.90
30765;BMP180;494;48.744;10.106;2024-01-30T06:51:50;96378.00;;;2.30
30765;BMP180;494;48.744;10.106;2024-01-30T06:54:19;96883.00;;;2.30
30765;BMP180;494;48.744;10.106;2024-01-30T06:56:48;96410.00;;;2.40
30765;BMP180;494;48.744;10.106;2024-01-30T06:59:17;96973.00;;;2.40
30765;BMP180;494;48.744;10.106;2024-01-30T07:01:47;96872.00;;;2.50
30765;BMP180;494;48.744;10.106;2024-01-30T07:04:16;96831.00;;;2.50
30765;BMP180;494;48.744;10.106;2024-01-30T07:06:45;96665.00;;;1.80
30765;BMP180;494;48.744;10.106;2024-01-30T07:09:14;96734.00;;;2.60
30765;BMP180;494;48.744;10.106;2024-01-30T07:11:43;96921.00;;;2.70
30765;BMP180;494;48.744;10.106;2024-01-30T07:14:11;96890.00;;;2.90
30765;BMP180;494;48.744;10.106;2024-01-30T07:16:40;96972.00;;;2.20
30765;BMP180;494;48.744;10.106;2024-01-30T07:19:10;96893.00;;;2.90
30765;BMP180;494;48.744;10.106;2024-01-30T07:21:39;97092.00;;;3.00
30765;BMP180;494;48.744;10.106;2024-01-30T07:24:07;96974.00;;;2.80
30765;BMP180;494;48.744;10.106;2024-01-30T07:26:36;97066.00;;;3.10
30765;BMP180;494;48.744;10.106;2024-01-30T07:29:05;97064.00;;;3.20
30765;BMP180;494;48.744;10.106;2024-01-30T07:31:34;96833.00;;;3.10
30765;BMP180;494;48.744;10.106;2024-01-30T07:34:02;96910.00;;;3.20
30765;BMP180;494;48.744;10.106;2024-01-30T07:36:34;97051.00;;;3.30
30765;BMP180;494;48.744;10.106;2024-01-30T07:39:02;97072.00;;;3.30
30765;BMP180;494;48.744;10.106;2024-01-30T07:41:31;96886.00;;;3.40
30765;BMP180;494;48.744;10.106;2024-01-30T07:44:00;96996.00;;;3.60
30765;BMP180;494;48.744;10.106;2024-01-30T07:46:29;96542.00;;;3.70
30765;BMP180;494;48.744;10.106;2024-01-30T07:48:58;97154.00;;;3.80
30765;BMP180;494;48.744;10.106;2024-01-30T07:51:27;96984.00;;;4.00
30765;BMP180;494;48.744;10.106;2024-01-30T07:54:00;96591.00;;;1.80
30765;BMP180;494;48.744;10.106;2024-01-30T07:56:29;96968.00;;;4.20
30765;BMP180;494;48.744;10.106;2024-01-30T07:58:57;97068.00;;;4.40
30765;BMP180;494;48.744;10.106;2024-01-30T08:01:26;96438.00;;;4.70
30765;BMP180;494;48.744;10.106;2024-01-30T08:03:55;97147.00;;;4.80
30765;BMP180;494;48.744;10.106;2024-01-30T08:06:24;96789.00;;;4.70
30765;BMP180;494;48.744;10.106;2024-01-30T08:08:53;97092.00;;;5.40
30765;BMP180;494;48.744;10.106;2024-01-30T08:11:23;97069.00;;;5.70
30765;BMP180;494;48.744;10.106;2024-01-30T08:13:53;97023.00;;;6.00
30765;BMP180;494;48.744;10.106;2024-01-30T08:16:22;96838.00;;;6.50
30765;BMP180;494;48.744;10.106;2024-01-30T08:18:52;96990.00;;;6.80
30765;BMP180;494;48.744;10.106;2024-01-30T08:21:23;96925.00;;;7.10
30765;BMP180;494;48.744;10.106;2024-01-30T08:23:52;96664.00;;;7.10
30765;BMP180;494;48.744;10.106;2024-01-30T08:26:22;97045.00;;;5.20
30765;BMP180;494;48.744;10.106;2024-01-30T08:28:51;97008.00;;;7.40
30765;BMP180;494;48.744;10.106;2024-01-30T08:31:21;97142.00;;;6.10
30765;BMP180;494;48.744;10.106;2024-01-30T08:33:50;96377.00;;;7.70
30765;BMP180;494;48.744;10.106;2024-01-30T08:36:19;97002.00;;;7.90
30765;BMP180;494;48.744;10.106;2024-01-30T08:38:48;96620.00;;;8.20
30765;BMP180;494;48.744;10.106;2024-01-30T08:41:20;97052.00;;;7.70
30765;BMP180;494;48.744;10.106;2024-01-30T08:43:50;96402.00;;;9.10
30765;BMP180;494;48.744;10.106;2024-01-30T08:46:19;97012.00;;;9.70
30765;BMP180;494;48.744;10.106;2024-01-30T08:48:49;96861.00;;;9.20
30765;BMP180;494;48.744;10.106;2024-01-30T08:51:19;97116.00;;;7.70
30765;BMP180;494;48.744;10.106;2024-01-30T08:53:47;96973.00;;;10.20
30765;BMP180;494;48.744;10.106;2024-01-30T08:56:16;96903.00;;;10.60
30765;BMP180;494;48.744;10.106;2024-01-30T08:58:45;97043.00;;;10.90
30765;BMP180;494;48.744;10.106;2024-01-30T09:01:16;96980.00;;;11.60
30765;BMP180;494;48.744;10.106;2024-01-30T09:03:44;97126.00;;;11.70
30765;BMP180;494;48.744;10.106;2024-01-30T09:06:15;96965.00;;;12.00
30765;BMP180;494;48.744;10.106;2024-01-30T09:08:44;97039.00;;;11.70
30765;BMP180;494;48.744;10.106;2024-01-30T09:11:15;97041.00;;;11.40
30765;BMP180;494;48.744;10.106;2024-01-30T09:13:44;96945.00;;;11.30
30765;BMP180;494;48.744;10.106;2024-01-30T09:16:15;97096.00;;;11.60
30765;BMP180;494;48.744;10.106;2024-01-30T09:18:44;96937.00;;;11.30
30765;BMP180;494;48.744;10.106;2024-01-30T09:21:13;96592.00;;;11.20
30765;BMP180;494;48.744;10.106;2024-01-30T09:23:42;96878.00;;;10.70
30765;BMP180;494;48.744;10.106;2024-01-30T09:26:10;96399.00;;;10.10
30765;BMP180;494;48.744;10.106;2024-01-30T09:28:39;97153.00;;;10.20
30765;BMP180;494;48.744;10.106;2024-01-30T09:31:10;96620.00;;;10.70
30765;BMP180;494;48.744;10.106;2024-01-30T09:33:41;97033.00;;;10.70
30765;BMP180;494;48.744;10.106;2024-01-30T09:36:11;97174.00;;;11.00
30765;BMP180;494;48.744;10.106;2024-01-30T09:38:42;97108.00;;;12.20
30765;BMP180;494;48.744;10.106;2024-01-30T09:41:11;96977.00;;;10.30
30765;BMP180;494;48.744;10.106;2024-01-30T09:43:47;96824.00;;;11.70
30765;BMP180;494;48.744;10.106;2024-01-30T09:46:18;96410.00;;;13.10
30765;BMP180;494;48.744;10.106;2024-01-30T09:48:54;96573.00;;;12.50
30765;BMP180;494;48.744;10.106;2024-01-30T09:51:26;97122.00;;;12.60
30765;BMP180;494;48.744;10.106;2024-01-30T09:53:56;96859.00;;;12.70
30765;BMP180;494;48.744;10.106;2024-01-30T09:56:25;97059.00;;;13.30
30765;BMP180;494;48.744;10.106;2024-01-30T09:58:55;96846.00;;;14.00
30765;BMP180;494;48.744;10.106;2024-01-30T10:01:24;97058.00;;;13.80
30765;BMP180;494;48.744;10.106;2024-01-30T10:03:55;96649.00;;;13.60
30765;BMP180;494;48.744;10.106;2024-01-30T10:06:25;97063.00;;;14.30
30765;BMP180;494;48.744;10.106;2024-01-30T10:08:54;97030.00;;;14.70
30765;BMP180;494;48.744;10.106;2024-01-30T10:11:23;96865.00;;;14.70
30765;BMP180;494;48.744;10.106;2024-01-30T10:13:52;97027.00;;;15.80
30765;BMP180;494;48.744;10.106;2024-01-30T10:16:21;96980.00;;;14.90
30765;BMP180;494;48.744;10.106;2024-01-30T10:18:50;97067.00;;;15.00
30765;BMP180;494;48.744;10.106;2024-01-30T10:21:20;96664.00;;;16.00
30765;BMP180;494;48.744;10.106;2024-01-30T10:23:50;97041.00;;;16.60
30765;BMP180;494;48.744;10.106;2024-01-30T10:26:19;97061.00;;;17.10
30765;BMP180;494;48.744;10.106;2024-01-30T10:28:48;97122.00;;;17.10
30765;BMP180;494;48.744;10.106;2024-01-30T10:31:17;96750.00;;;17.30
30765;BMP180;494;48.744;10.106;2024-01-30T10:33:46;97041.00;;;17.10
30765;BMP180;494;48.744;10.106;2024-01-30T10:36:20;97070.00;;;17.70
30765;BMP180;494;48.744;10.106;2024-01-30T10:38:52;96732.00;;;17.10
30765;BMP180;494;48.744;10.106;2024-01-30T10:41:27;96770.00;;;17.40
30765;BMP180;494;48.744;10.106;2024-01-30T10:44:08;97016.00;;;17.50
30765;BMP180;494;48.744;10.106;2024-01-30T10:46:38;96892.00;;;16.90
30765;BMP180;494;48.744;10.106;2024-01-30T10:49:10;97042.00;;;16.40
30765;BMP180;494;48.744;10.106;2024-01-30T10:51:42;96668.00;;;16.00
30765;BMP180;494;48.744;10.106;2024-01-30T10:54:13;96656.00;;;15.60
30765;BMP180;494;48.744;10.106;2024-01-30T10:56:43;96735.00;;;15.70
30765;BMP180;494;48.744;10.106;2024-01-30T10:59:13;96967.00;;;16.10
30765;BMP180;494;48.744;10.106;2024-01-30T11:01:42;96892.00;;;16.20
30765;BMP180;494;48.744;10.106;2024-01-30T11:04:12;97021.00;;;16.00
30765;BMP180;494;48.744;10.106;2024-01-30T11:06:43;96954.00;;;15.60
30765;BMP180;494;48.744;10.106;2024-01-30T11:09:12;96914.00;;;15.20
30765;BMP180;494;48.744;10.106;2024-01-30T11:11:50;97037.00;;;16.00
30765;BMP180;494;48.744;10.106;2024-01-30T11:14:26;97023.00;;;16.60
30765;BMP180;494;48.744;10.106;2024-01-30T11:16:58;96948.00;;;16.80
30765;BMP180;494;48.744;10.106;2024-01-30T11:19:30;96900.00;;;17.00
30765;BMP180;494;48.744;10.106;2024-01-30T11:22:01;96928.00;;;16.60
30765;BMP180;494;48.744;10.106;2024-01-30T11:24:30;96999.00;;;16.40
30765;BMP180;494;48.744;10.106;2024-01-30T11:27:08;97024.00;;;14.40
30765;BMP180;494;48.744;10.106;2024-01-30T11:29:38;96842.00;;;15.30
30765;BMP180;494;48.744;10.106;2024-01-30T11:32:08;96850.00;;;14.60
30765;BMP180;494;48.744;10.106;2024-01-30T11:34:41;97062.00;;;14.90
30765;BMP180;494;48.744;10.106;2024-01-30T11:37:13;96925.00;;;15.10
30765;BMP180;494;48.744;10.106;2024-01-30T11:39:44;96552.00;;;13.80
30765;BMP180;494;48.744;10.106;2024-01-30T11:42:15;96694.00;;;14.90
30765;BMP180;494;48.744;10.106;2024-01-30T11:44:48;96761.00;;;14.30
30765;BMP180;494;48.744;10.106;2024-01-30T11:47:17;96971.00;;;14.40
30765;BMP180;494;48.744;10.106;2024-01-30T11:49:46;96964.00;;;14.40
30765;BMP180;494;48.744;10.106;2024-01-30T11:52:17;96690.00;;;14.10
30765;BMP180;494;48.744;10.106;2024-01-30T11:54:46;96756.00;;;13.00
30765;BMP180;494;48.744;10.106;2024-01-30T11:57:15;96970.00;;;12.90
30765;BMP180;494;48.744;10.106;2024-01-30T11:59:44;96881.00;;;12.60
30765;BMP180;494;48.744;10.106;2024-01-30T12:02:16;96909.00;;;12.40
30765;BMP180;494;48.744;10.106;2024-01-30T12:04:45;96859.00;;;12.40
30765;BMP180;494;48.744;10.106;2024-01-30T12:07:14;96913.00;;;12.30
30765;BMP180;494;48.744;10.106;2024-01-30T12:09:54;96554.00;;;12.60
30765;BMP180;494;48.744;10.106;2024-01-30T12:12:29;96747.00;;;12.50
30765;BMP180;494;48.744;10.106;2024-01-30T12:15:07;97053.00;;;12.60
30765;BMP180;494;48.744;10.106;2024-01-30T12:17:36;97023.00;;;11.50
30765;BMP180;494;48.744;10.106;2024-01-30T12:20:07;96962.00;;;12.30
30765;BMP180;494;48.744;10.106;2024-01-30T12:22:40;96766.00;;;12.20
30765;BMP180;494;48.744;10.106;2024-01-30T12:25:13;96962.00;;;12.10
30765;BMP180;494;48.744;10.106;2024-01-30T12:28:10;96962.00;;;12.20
30765;BMP180;494;48.744;10.106;2024-01-30T12:30:39;96471.00;;;10.80
30765;BMP180;494;48.744;10.106;2024-01-30T12:33:16;97015.00;;;12.60
30765;BMP180;494;48.744;10.106;2024-01-30T12:35:48;96946.00;;;12.50
30765;BMP180;494;48.744;10.106;2024-01-30T12:38:29;96849.00;;;12.70
30765;BMP180;494;48.744;10.106;2024-01-30T12:40:59;96993.00;;;12.30
30765;BMP180;494;48.744;10.106;2024-01-30T12:43:29;96363.00;;;12.30
30765;BMP180;494;48.744;10.106;2024-01-30T12:46:06;96949.00;;;12.90
30765;BMP180;494;48.744;10.106;2024-01-30T12:48:35;96845.00;;;12.70
30765;BMP180;494;48.744;10.106;2024-01-30T12:51:05;96987.00;;;13.30
30765;BMP180;494;48.744;10.106;2024-01-30T12:53:34;96329.00;;;13.50
30765;BMP180;494;48.744;10.106;2024-01-30T12:56:05;96526.00;;;13.60
30765;BMP180;494;48.744;10.106;2024-01-30T12:58:39;96820.00;;;13.50
30765;BMP180;494;48.744;10.106;2024-01-30T13:01:10;96359.00;;;13.20
30765;BMP180;494;48.744;10.106;2024-01-30T13:03:40;96937.00;;;14.50
30765;BMP180;494;48.744;10.106;2024-01-30T13:06:09;96936.00;;;14.10
30765;BMP180;494;48.744;10.106;2024-01-30T13:08:39;96450.00;;;14.30
30765;BMP180;494;48.744;10.106;2024-01-30T13:11:11;96769.00;;;14.50
30765;BMP180;494;48.744;10.106;2024-01-30T13:13:47;96569.00;;;14.50
30765;BMP180;494;48.744;10.106;2024-01-30T13:16:18;96399.00;;;14.30
30765;BMP180;494;48.744;10.106;2024-01-30T13:18:48;96886.00;;;14.30
30765;BMP180;494;48.744;10.106;2024-01-30T13:21:17;96984.00;;;14.30
30765;BMP180;494;48.744;10.106;2024-01-30T13:23:47;96741.00;;;14.10
30765;BMP180;494;48.744;10.106;2024-01-30T13:26:23;97038.00;;;14.20
30765;BMP180;494;48.744;10.106;2024-01-30T13:28:52;96504.00;;;12.60
30765;BMP180;494;48.744;10.106;2024-01-30T13:31:21;97005.00;;;14.70
30765;BMP180;494;48.744;10.106;2024-01-30T13:33:50;96857.00;;;15.00
30765;BMP180;494;48.744;10.106;2024-01-30T13:36:19;96923.00;;;15.30
30765;BMP180;494;48.744;10.106;2024-01-30T13:38:48;96615.00;;;15.50
30765;BMP180;494;48.744;10.106;2024-01-30T13:41:17;96476.00;;;15.90
30765;BMP180;494;48.744;10.106;2024-01-30T13:43:52;96919.00;;;15.60
30765;BMP180;494;48.744;10.106;2024-01-30T13:46:23;96590.00;;;16.60
30765;BMP180;494;48.744;10.106;2024-01-30T13:48:56;96936.00;;;16.90
30765;BMP180;494;48.744;10.106;2024-01-30T13:51:26;96997.00;;;18.70
30765;BMP180;494;48.744;10.106;2024-01-30T13:53:58;96956.00;;;19.90
30765;BMP180;494;48.744;10.106;2024-01-30T13:56:29;96639.00;;;20.40
30765;BMP180;494;48.744;10.106;2024-01-30T13:59:01;96824.00;;;20.50
30765;BMP180;494;48.744;10.106;2024-01-30T14:01:33;96854.00;;;19.80
30765;BMP180;494;48.744;10.106;2024-01-30T14:04:04;96930.00;;;19.10
30765;BMP180;494;48.744;10.106;2024-01-30T14:06:45;96676.00;;;18.50
30765;BMP180;494;48.744;10.106;2024-01-30T14:09:27;96944.00;;;17.80
30765;BMP180;494;48.744;10.106;2024-01-30T14:11:57;96971.00;;;18.00
30765;BMP180;494;48.744;10.106;2024-01-30T14:14:28;96577.00;;;16.20
30765;BMP180;494;48.744;10.106;2024-01-30T14:16:58;96942.00;;;16.70
30765;BMP180;494;48.744;10.106;2024-01-30T14:19:27;96875.00;;;16.60
30765;BMP180;494;48.744;10.106;2024-01-30T14:21:59;96917.00;;;15.30
30765;BMP180;494;48.744;10.106;2024-01-30T14:24:31;96421.00;;;15.00
30765;BMP180;494;48.744;10.106;2024-01-30T14:27:03;96879.00;;;15.60
30765;BMP180;494;48.744;10.106;2024-01-30T14:29:34;96389.00;;;15.20
30765;BMP180;494;48.744;10.106;2024-01-30T14:32:03;96976.00;;;14.90
30765;BMP180;494;48.744;10.106;2024-01-30T14:34:34;96765.00;;;15.00
30765;BMP180;494;48.744;10.106;2024-01-30T14:37:11;96954.00;;;13.50
30765;BMP180;494;48.744;10.106;2024-01-30T14:39:40;96988.00;;;14.20
30765;BMP180;494;48.744;10.106;2024-01-30T14:42:12;96883.00;;;16.10
30765;BMP180;494;48.744;10.106;2024-01-30T14:44:44;96949.00;;;16.00
30765;BMP180;494;48.744;10.106;2024-01-30T14:47:16;96556.00;;;16.50
30765;BMP180;494;48.744;10.106;2024-01-30T14:49:46;96851.00;;;16.40